Time;durP1;ratioP1;P1;durP2;ratioP2;P2;SDS_P1;SDS_P2;PMS_P1;PMS_P2;Temp;Humidity;BMP_temperature;BMP_pressure;BME280_temperature;BME280_humidity;BME280_pressure;Samples;Min_cycle;Max_cycle;Signal;HPM_P1;HPM_P2
2023/01/03 00:00:37;;;;;;;2.33;1.10;;;8.10;1.00;;;;;;10046923;29;20496;-78
2023/01/03 00:05:59;;;;;;;2.17;0.90;;;8.00;1.00;;;;;;10046812;29;20255;-82
2023/01/03 00:17:07;;;;;;;2.07;0.70;;;7.90;1.00;;;;;;10047091;29;20273;-81
2023/01/03 00:22:32;;;;;;;0.80;0.80;;;7.90;1.00;;;;;;10059456;29;20214;-81
2023/01/03 00:27:54;;;;;;;2.97;0.90;;;7.90;1.00;;;;;;10046991;29;20242;-81
2023/01/03 00:33:16;;;;;;;0.60;0.50;;;7.90;1.00;;;;;;10045876;29;20236;-82
2023/01/03 00:38:38;;;;;;;1.03;0.70;;;7.80;1.00;;;;;;10060952;29;20238;-81
2023/01/03 00:43:59;;;;;;;0.90;0.70;;;7.90;1.00;;;;;;10060669;29;20433;-80
2023/01/03 00:49:21;;;;;;;2.53;0.90;;;7.90;1.00;;;;;;10046203;29;20209;-80
2023/01/03 00:54:42;;;;;;;2.73;1.30;;;8.00;1.00;;;;;;10060191;29;20241;-81
2023/01/03 01:00:04;;;;;;;1.90;1.00;;;8.00;1.00;;;;;;10045856;29;20200;-80
2023/01/03 01:05:24;;;;;;;5.03;0.93;;;8.00;1.00;;;;;;10059770;29;20277;-80
2023/01/03 01:11:00;;;;;;;4.97;0.90;;;7.90;1.00;;;;;;10059777;29;20211;-81
2023/01/03 01:16:24;;;;;;;2.13;0.97;;;7.80;1.00;;;;;;10046353;29;20211;-79
2023/01/03 01:21:45;;;;;;;1.80;0.73;;;7.90;1.00;;;;;;10046267;29;20210;-81
2023/01/03 01:27:06;;;;;;;2.47;0.93;;;8.00;1.00;;;;;;10046018;29;20260;-81
2023/01/03 01:32:27;;;;;;;5.70;1.30;;;7.90;1.00;;;;;;10045297;29;20244;-79
2023/01/03 01:37:48;;;;;;;2.43;0.60;;;7.80;1.00;;;;;;10046004;29;20330;-81
2023/01/03 01:49:04;;;;;;;3.43;1.07;;;7.80;1.00;;;;;;10042923;29;20434;-81
2023/01/03 01:54:25;;;;;;;4.97;0.93;;;7.90;1.00;;;;;;10044873;29;20253;-81
2023/01/03 01:59:46;;;;;;;3.03;0.83;;;7.90;1.00;;;;;;10043443;29;20207;-81
2023/01/03 02:05:09;;;;;;;3.17;1.00;;;7.80;1.00;;;;;;10041933;29;20216;-82
2023/01/03 02:10:48;;;;;;;4.33;1.30;;;7.70;1.00;;;;;;10005632;29;20426;-81
2023/01/03 02:16:31;;;;;;;2.20;1.00;;;7.70;1.00;;;;;;10005396;29;20204;-82
2023/01/03 02:22:11;;;;;;;2.20;1.03;;;7.60;1.00;;;;;;10017191;29;20250;-80
2023/01/03 02:27:55;;;;;;;4.43;0.97;;;7.60;1.00;;;;;;10016703;29;20207;-80
2023/01/03 02:33:26;;;;;;;5.70;1.30;;;7.50;1.00;;;;;;10016774;29;20286;-82
2023/01/03 02:39:13;;;;;;;4.20;0.90;;;7.60;1.00;;;;;;10056773;29;20210;-81
2023/01/03 02:44:39;;;;;;;5.27;1.10;;;7.60;1.00;;;;;;10041258;29;20318;-80
2023/01/03 02:50:03;;;;;;;3.53;1.00;;;7.70;1.00;;;;;;10054352;29;20250;-81
2023/01/03 02:55:28;;;;;;;3.80;1.27;;;7.60;1.00;;;;;;10053918;29;20240;-81
2023/01/03 03:00:54;;;;;;;3.53;1.20;;;7.70;1.00;;;;;;10041699;29;20202;-79
2023/01/03 03:06:33;;;;;;;2.03;0.97;;;7.50;1.00;;;;;;10042049;29;20277;-81
2023/01/03 03:17:38;;;;;;;7.63;1.20;;;7.30;99.90;;;;;;10061535;29;20288;-80
2023/01/03 03:28:52;;;;;;;3.40;1.00;;;7.40;99.90;;;;;;10063051;29;20224;-81
2023/01/03 03:34:19;;;;;;;1.67;0.97;;;7.30;99.90;;;;;;10048471;29;20230;-81
2023/01/03 03:45:58;;;;;;;4.33;0.93;;;7.20;99.90;;;;;;10046068;29;20208;-81
2023/01/03 03:51:22;;;;;;;6.43;1.23;;;7.20;99.90;;;;;;10044973;29;20225;-81
2023/01/03 03:56:51;;;;;;;3.43;1.27;;;7.30;99.90;;;;;;10031554;29;20276;-81
2023/01/03 04:02:14;;;;;;;3.83;0.80;;;7.30;10.60;;;;;;10045389;29;20451;-81
2023/01/03 04:07:36;;;;;;;2.07;0.53;;;7.20;1.00;;;;;;10045299;29;20230;-81
2023/01/03 04:12:57;;;;;;;2.37;0.83;;;7.20;1.00;;;;;;10043906;29;20266;-81
2023/01/03 04:18:18;;;;;;;3.40;0.77;;;7.20;1.00;;;;;;10057306;29;20254;-81
2023/01/03 04:23:40;;;;;;;3.23;0.63;;;7.20;1.00;;;;;;10057101;29;20197;-81
2023/01/03 04:29:01;;;;;;;2.60;1.00;;;7.00;1.00;;;;;;10043212;29;20610;-80
2023/01/03 04:34:22;;;;;;;2.13;0.80;;;7.00;1.00;;;;;;10044047;29;20423;-81
2023/01/03 04:39:43;;;;;;;2.87;0.70;;;6.80;1.00;;;;;;10044229;29;20209;-81
2023/01/03 04:45:13;;;;;;;8.90;1.77;;;6.70;1.00;;;;;;10641360;27;20563;-81
2023/01/03 04:50:34;;;;;;;4.07;0.70;;;6.70;1.00;;;;;;10637051;28;20200;-80
2023/01/03 04:55:56;;;;;;;4.77;1.20;;;6.70;1.00;;;;;;10610739;28;20488;-80
2023/01/03 05:01:16;;;;;;;5.43;1.33;;;6.50;99.90;;;;;;10607958;28;20231;-80
2023/01/03 05:06:38;;;;;;;3.50;1.03;;;6.50;1.00;;;;;;10641867;27;20199;-79
2023/01/03 05:11:59;;;;;;;5.40;1.40;;;6.40;1.00;;;;;;10640235;28;20439;-82
2023/01/03 05:17:20;;;;;;;4.40;1.00;;;6.30;99.90;;;;;;10639877;28;20187;-82
2023/01/03 05:28:22;;;;;;;3.17;1.10;;;6.40;99.90;;;;;;10639535;28;20263;-81
2023/01/03 05:33:43;;;;;;;3.10;0.80;;;6.50;79.20;;;;;;10636021;27;20212;-82
2023/01/03 05:39:04;;;;;;;3.27;0.70;;;6.40;1.00;;;;;;10638735;28;20187;-81
2023/01/03 05:44:30;;;;;;;3.60;0.87;;;6.40;1.00;;;;;;10623181;28;20239;-81
2023/01/03 05:49:51;;;;;;;7.90;1.10;;;6.40;56.80;;;;;;10606119;28;20203;-81
2023/01/03 05:55:12;;;;;;;6.20;1.20;;;6.40;99.90;;;;;;10602392;28;20246;-80
2023/01/03 06:00:34;;;;;;;4.30;1.10;;;6.40;99.90;;;;;;10594492;28;20478;-81
2023/01/03 06:06:04;;;;;;;5.40;1.40;;;6.30;99.90;;;;;;10591051;28;20379;-81
2023/01/03 06:11:25;;;;;;;7.10;1.10;;;6.30;99.90;;;;;;10609287;28;20214;-81
2023/01/03 06:22:26;;;;;;;5.03;0.93;;;6.40;34.30;;;;;;10590383;28;20229;-80
2023/01/03 06:27:47;;;;;;;4.20;1.30;;;6.40;1.00;;;;;;10608679;28;20192;-81
2023/01/03 06:33:10;;;;;;;3.60;1.20;;;6.40;1.00;;;;;;10605408;28;20273;-81
2023/01/03 06:38:32;;;;;;;3.90;0.90;;;6.40;1.00;;;;;;10607996;28;20417;-81
2023/01/03 06:43:54;;;;;;;4.07;1.10;;;6.30;1.00;;;;;;10607570;28;20227;-81
2023/01/03 06:54:57;;;;;;;2.43;0.90;;;6.30;1.00;;;;;;10589332;28;20197;-81
2023/01/03 07:00:18;;;;;;;4.43;1.03;;;6.30;1.00;;;;;;10575148;28;20245;-81
2023/01/03 07:05:39;;;;;;;5.37;1.10;;;6.30;98.20;;;;;;10587470;28;20571;-81
2023/01/03 07:11:01;;;;;;;7.03;1.77;;;6.20;99.90;;;;;;10606828;28;20513;-81
2023/01/03 07:16:22;;;;;;;8.57;1.43;;;6.20;99.90;;;;;;10588258;28;20204;-81
2023/01/03 07:21:43;;;;;;;8.03;1.70;;;6.30;99.90;;;;;;10590946;28;20231;-80
2023/01/03 07:27:05;;;;;;;4.67;1.03;;;6.20;1.00;;;;;;10590781;28;20245;-80
2023/01/03 07:32:26;;;;;;;4.33;1.10;;;6.20;1.00;;;;;;10602732;28;20224;-81
2023/01/03 07:37:50;;;;;;;4.37;1.60;;;6.10;1.00;;;;;;10573758;28;20270;-81
2023/01/03 07:48:57;;;;;;;6.43;1.33;;;6.10;99.90;;;;;;10586796;28;20191;-80
2023/01/03 07:54:19;;;;;;;5.03;1.17;;;6.10;99.90;;;;;;10589957;28;20199;-80
2023/01/03 07:59:40;;;;;;;7.17;1.63;;;6.00;59.40;;;;;;10604853;28;20183;-81
2023/01/03 08:05:03;;;;;;;6.77;1.60;;;6.10;99.90;;;;;;10572626;28;20255;-81
2023/01/03 08:16:04;;;;;;;3.53;1.10;;;6.20;99.90;;;;;;10588447;28;20217;-81
2023/01/03 08:21:26;;;;;;;9.50;1.37;;;6.20;1.00;;;;;;10585789;28;20231;-81
2023/01/03 08:26:47;;;;;;;8.63;1.53;;;6.20;1.00;;;;;;10604018;28;20191;-81
2023/01/03 08:32:08;;;;;;;4.40;1.53;;;6.10;1.00;;;;;;10616977;27;20214;-80
2023/01/03 08:37:29;;;;;;;11.80;1.50;;;6.30;1.00;;;;;;10468740;27;20230;-82
2023/01/03 08:42:51;;;;;;;3.07;0.80;;;6.40;99.90;;;;;;10476990;28;20270;-84
2023/01/03 08:48:13;;;;;;;3.63;1.80;;;6.40;99.90;;;;;;10445059;28;20217;-79
2023/01/03 08:53:34;;;;;;;5.70;2.00;;;6.40;99.90;;;;;;10474386;28;20189;-80
2023/01/03 08:58:57;;;;;;;10.83;1.87;;;6.40;99.90;;;;;;10454847;28;20285;-82
2023/01/03 09:04:18;;;;;;;5.97;1.77;;;6.40;1.00;;;;;;10473443;28;20226;-77
2023/01/03 09:09:40;;;;;;;5.30;1.53;;;6.40;99.90;;;;;;10473905;28;20190;-84
2023/01/03 09:15:01;;;;;;;4.63;1.43;;;6.40;99.90;;;;;;10443220;28;20200;-81
2023/01/03 09:20:22;;;;;;;9.07;2.40;;;6.40;99.90;;;;;;10457113;28;20205;-79
2023/01/03 09:25:45;;;;;;;12.03;1.80;;;6.40;99.90;;;;;;10455041;28;20237;-85
2023/01/03 09:31:06;;;;;;;16.10;4.87;;;6.50;1.00;;;;;;10496712;28;20197;-78
2023/01/03 09:36:27;;;;;;;7.13;2.43;;;6.50;1.00;;;;;;10457916;28;20244;-83
2023/01/03 09:43:11;;;;;;;6.13;1.70;;;6.70;1.00;;;;;;10492541;28;20444;-79
2023/01/03 09:47:34;;;;;;;6.53;1.67;;;6.70;1.00;;;;;;10497207;28;20198;-79
2023/01/03 10:04:37;;;;;;;14.87;2.80;;;6.70;1.00;;;;;;10460526;28;20271;-77
2023/01/03 10:10:21;;;;;;;4.20;1.50;;;6.60;1.00;;;;;;10447388;28;20196;-80
2023/01/03 10:16:01;;;;;;;4.40;1.40;;;6.70;99.90;;;;;;10477131;28;20280;-77
2023/01/03 10:21:31;;;;;;;5.43;1.50;;;6.70;99.90;;;;;;10462671;28;20213;-83
2023/01/03 10:27:20;;;;;;;7.17;2.30;;;6.70;65.50;;;;;;10460618;28;20209;-81
2023/01/03 10:33:11;;;;;;;6.00;1.97;;;6.70;1.00;;;;;;10427763;28;20595;-86
2023/01/03 10:38:32;;;;;;;14.17;2.00;;;6.70;99.90;;;;;;10454098;28;20483;-84
2023/01/03 10:44:01;;;;;;;10.17;1.83;;;6.60;1.00;;;;;;10503229;28;20551;-83
2023/01/03 10:49:26;;;;;;;7.97;1.87;;;6.60;1.00;;;;;;10486560;28;20376;-80
2023/01/03 10:54:53;;;;;;;7.73;3.17;;;6.60;67.20;;;;;;10518999;28;20276;-80
2023/01/03 11:00:26;;;;;;;14.50;3.90;;;6.70;99.90;;;;;;10486728;28;20251;-77
2023/01/03 11:06:09;;;;;;;8.33;2.40;;;6.60;99.90;;;;;;10485483;28;20320;-78
2023/01/03 11:11:35;;;;;;;10.13;1.90;;;6.60;1.00;;;;;;10334836;28;20401;-83
2023/01/03 11:17:02;;;;;;;10.23;2.03;;;6.60;1.00;;;;;;10349350;28;20428;-79
2023/01/03 11:22:58;;;;;;;8.60;2.47;;;6.50;99.90;;;;;;10348863;28;20246;-77
2023/01/03 11:28:48;;;;;;;9.57;1.77;;;6.60;1.00;;;;;;10351006;28;20228;-80
2023/01/03 11:34:23;;;;;;;7.83;2.03;;;6.60;99.90;;;;;;10179238;29;20431;-79
2023/01/03 11:40:17;;;;;;;5.87;1.47;;;6.50;99.90;;;;;;10162836;29;20218;-80
2023/01/03 11:46:10;;;;;;;10.70;2.00;;;6.50;1.00;;;;;;10216281;28;20295;-79
2023/01/03 11:51:34;;;;;;;7.67;1.80;;;6.50;99.90;;;;;;10345910;28;20207;-79
2023/01/03 11:57:05;;;;;;;6.97;1.57;;;6.40;1.00;;;;;;10316198;28;20212;-79
2023/01/03 12:02:57;;;;;;;11.33;1.70;;;6.40;1.00;;;;;;10346223;28;20227;-79
2023/01/03 12:08:51;;;;;;;11.27;2.40;;;6.30;1.00;;;;;;10411385;28;20211;-79
2023/01/03 12:14:31;;;;;;;10.50;2.07;;;6.30;1.00;;;;;;10495715;28;20542;-79
2023/01/03 12:20:09;;;;;;;10.80;4.63;;;6.40;1.00;;;;;;10482173;28;20236;-80
2023/01/03 12:25:41;;;;;;;6.13;1.73;;;6.40;1.00;;;;;;10485129;28;20503;-79
2023/01/03 12:31:28;;;;;;;5.57;1.77;;;6.40;1.00;;;;;;10491889;28;20189;-83
2023/01/03 12:37:09;;;;;;;10.53;2.47;;;6.50;1.00;;;;;;10472424;28;20239;-82
2023/01/03 12:42:58;;;;;;;7.33;1.50;;;6.40;1.00;;;;;;10495728;28;20310;-78
2023/01/03 12:48:34;;;;;;;6.10;1.50;;;6.50;1.00;;;;;;10481659;28;20197;-81
2023/01/03 12:54:25;;;;;;;13.00;2.23;;;6.50;1.00;;;;;;10481516;28;20204;-78
2023/01/03 13:00:05;;;;;;;8.47;2.67;;;6.40;21.30;;;;;;10494228;28;20499;-85
2023/01/03 13:05:41;;;;;;;4.93;2.30;;;6.40;45.80;;;;;;10474183;28;20464;-77
2023/01/03 13:11:29;;;;;;;18.43;3.83;;;6.50;49.20;;;;;;10490173;28;20492;-78
2023/01/03 13:16:55;;;;;;;7.87;2.90;;;6.40;99.90;;;;;;10488975;28;20197;-79
2023/01/03 13:22:55;;;;;;;6.80;1.60;;;6.40;51.20;;;;;;10521677;28;20222;-79
2023/01/03 13:28:19;;;;;;;7.93;2.30;;;6.50;1.00;;;;;;10341910;28;20471;-79
2023/01/03 13:34:15;;;;;;;5.97;1.30;;;6.40;1.00;;;;;;10328820;28;20494;-80
2023/01/03 13:39:43;;;;;;;13.73;3.17;;;6.50;1.00;;;;;;10337861;28;20274;-82
2023/01/03 13:45:10;;;;;;;10.97;2.20;;;6.30;93.70;;;;;;10321788;28;20247;-81
2023/01/03 13:50:35;;;;;;;7.30;1.70;;;6.30;99.90;;;;;;10337033;28;20207;-80
2023/01/03 13:56:00;;;;;;;9.13;2.70;;;6.30;99.90;;;;;;10352152;28;20431;-85
2023/01/03 14:01:45;;;;;;;9.17;3.03;;;6.30;99.90;;;;;;10404831;28;20212;-81
2023/01/03 14:07:28;;;;;;;7.30;1.77;;;6.20;99.90;;;;;;10450050;28;20201;-81
2023/01/03 14:13:21;;;;;;;11.70;2.10;;;6.20;99.90;;;;;;10478644;28;20201;-80
2023/01/03 14:19:05;;;;;;;5.63;1.50;;;6.20;99.90;;;;;;10462355;28;20193;-76
2023/01/03 14:24:29;;;;;;;7.53;2.13;;;6.20;99.90;;;;;;10462720;28;20247;-81
2023/01/03 14:29:53;;;;;;;7.97;3.30;;;6.20;69.00;;;;;;10468210;28;20201;-89
2023/01/03 14:35:32;;;;;;;8.87;2.30;;;6.30;1.00;;;;;;10442752;28;20304;-76
2023/01/03 14:40:55;;;;;;;8.63;2.33;;;6.20;1.00;;;;;;10498170;28;20274;-81
2023/01/03 14:46:16;;;;;;;14.43;2.87;;;6.10;1.00;;;;;;10472273;28;20227;-82
2023/01/03 14:51:38;;;;;;;13.13;2.63;;;6.10;67.70;;;;;;10487052;28;20184;-80
2023/01/03 14:57:01;;;;;;;9.17;2.93;;;6.10;99.90;;;;;;10487501;28;20206;-78
2023/01/03 15:02:23;;;;;;;9.07;2.40;;;6.10;99.90;;;;;;10502383;28;20582;-80
2023/01/03 15:07:44;;;;;;;9.47;2.90;;;6.00;99.90;;;;;;10484379;28;20201;-77
2023/01/03 15:13:20;;;;;;;15.47;3.20;;;6.00;99.90;;;;;;10487959;28;20203;-83
2023/01/03 15:18:44;;;;;;;5.13;1.80;;;6.00;99.90;;;;;;10487399;28;20195;-81
2023/01/03 15:24:17;;;;;;;9.50;2.53;;;6.00;99.90;;;;;;10484247;28;20230;-83
2023/01/03 15:29:44;;;;;;;11.63;2.40;;;5.90;99.90;;;;;;10515231;28;20263;-82
2023/01/03 15:35:17;;;;;;;9.07;2.47;;;5.90;99.90;;;;;;10495847;28;20195;-83
2023/01/03 15:40:39;;;;;;;10.03;2.10;;;5.80;99.90;;;;;;10499439;28;20231;-83
2023/01/03 15:46:10;;;;;;;11.47;2.97;;;5.80;99.90;;;;;;10499131;28;20451;-84
2023/01/03 15:51:31;;;;;;;14.10;4.10;;;5.80;99.90;;;;;;10499497;28;20206;-84
2023/01/03 15:57:00;;;;;;;16.27;4.50;;;5.80;99.90;;;;;;10512318;28;20191;-80
2023/01/03 16:02:24;;;;;;;10.27;3.20;;;5.70;99.90;;;;;;10518284;28;20208;-81
2023/01/03 16:07:46;;;;;;;9.87;4.03;;;5.60;99.90;;;;;;10502529;28;20547;-85
2023/01/03 16:13:08;;;;;;;8.10;2.90;;;5.50;99.90;;;;;;10519671;28;20188;-80
2023/01/03 16:18:56;;;;;;;11.23;3.97;;;5.40;99.90;;;;;;10473200;28;20205;-80
2023/01/03 16:24:18;;;;;;;7.30;1.97;;;5.40;99.90;;;;;;10517089;28;20219;-84
2023/01/03 16:29:39;;;;;;;12.83;2.80;;;5.40;99.90;;;;;;10516833;28;20185;-82
2023/01/03 16:35:03;;;;;;;10.50;2.93;;;5.40;99.90;;;;;;10473342;28;20206;-83
2023/01/03 16:40:24;;;;;;;8.57;2.40;;;5.50;99.90;;;;;;10519635;28;20194;-83
2023/01/03 16:45:45;;;;;;;9.67;2.97;;;5.40;1.00;;;;;;10519996;28;20231;-80
2023/01/03 16:51:17;;;;;;;6.10;2.87;;;5.30;1.00;;;;;;10488484;28;20522;-83
2023/01/03 16:56:37;;;;;;;11.43;2.80;;;5.40;1.00;;;;;;10519953;28;20193;-85
2023/01/03 17:01:58;;;;;;;5.70;2.60;;;5.40;1.00;;;;;;10502107;28;20246;-85
2023/01/03 17:07:23;;;;;;;7.27;2.03;;;5.40;1.00;;;;;;10487889;28;20222;-85
2023/01/03 17:12:44;;;;;;;7.90;2.30;;;5.40;1.00;;;;;;10487916;28;20200;-81
2023/01/03 17:18:08;;;;;;;6.03;2.13;;;5.20;1.00;;;;;;10521701;28;20188;-85
2023/01/03 17:23:33;;;;;;;6.73;2.27;;;5.30;1.00;;;;;;10504604;28;20226;-81
2023/01/03 17:28:54;;;;;;;11.50;3.07;;;5.20;1.00;;;;;;10519026;28;20197;-77
2023/01/03 17:34:30;;;;;;;8.63;2.20;;;5.00;1.00;;;;;;10489949;28;20240;-77
2023/01/03 17:39:56;;;;;;;4.87;1.77;;;;;;;;;;10449105;28;20403;-85
2023/01/03 17:50:58;;;;;;;6.87;2.80;;;5.10;1.00;;;;;;10464238;28;20201;-85
2023/01/03 17:56:19;;;;;;;7.83;2.70;;;5.00;1.00;;;;;;10453171;28;20197;-84
2023/01/03 18:01:41;;;;;;;11.67;3.87;;;5.00;1.00;;;;;;10467079;28;20268;-86
2023/01/03 18:07:02;;;;;;;10.37;3.07;;;5.10;1.00;;;;;;10498100;28;20558;-85
2023/01/03 18:12:25;;;;;;;7.77;2.80;;;5.10;1.00;;;;;;10525881;28;20395;-85
2023/01/03 18:17:47;;;;;;;8.60;3.80;;;5.00;1.00;;;;;;10507802;28;20197;-84
2023/01/03 18:23:17;;;;;;;5.60;2.30;;;5.00;1.00;;;;;;10525836;28;20449;-84
2023/01/03 18:28:38;;;;;;;8.80;3.10;;;5.10;1.00;;;;;;10512061;28;20187;-86
2023/01/03 18:34:03;;;;;;;7.17;3.23;;;5.10;1.00;;;;;;10497670;28;20209;-84
2023/01/03 18:39:28;;;;;;;9.73;3.60;;;5.00;1.00;;;;;;10520780;28;20518;-85
2023/01/03 18:44:49;;;;;;;6.83;2.40;;;5.00;1.00;;;;;;10481746;28;20244;-85
2023/01/03 18:50:18;;;;;;;8.53;2.60;;;5.00;1.00;;;;;;10483132;28;20229;-85
2023/01/03 18:55:39;;;;;;;12.60;2.80;;;4.90;1.00;;;;;;10481801;28;20197;-84
2023/01/03 19:01:01;;;;;;;11.23;2.73;;;4.90;1.00;;;;;;10482285;28;20188;-84
2023/01/03 19:06:29;;;;;;;7.60;3.10;;;4.90;13.20;;;;;;10482013;28;20222;-85
2023/01/03 19:11:54;;;;;;;11.80;3.10;;;4.90;65.20;;;;;;10482070;28;20404;-84
2023/01/03 19:17:18;;;;;;;11.03;2.93;;;4.90;70.70;;;;;;10480922;28;20203;-83
2023/01/03 19:22:40;;;;;;;7.93;2.20;;;4.90;91.00;;;;;;10481438;28;20503;-84
2023/01/03 19:28:03;;;;;;;7.30;2.47;;;5.00;38.60;;;;;;10481460;28;20491;-82
2023/01/03 19:33:25;;;;;;;9.77;3.67;;;4.90;52.20;;;;;;10457980;28;20412;-79
2023/01/03 19:38:46;;;;;;;9.80;3.60;;;5.00;90.00;;;;;;10448507;28;20398;-77
2023/01/03 19:44:07;;;;;;;6.27;2.13;;;5.00;47.80;;;;;;10466237;28;20237;-84
2023/01/03 19:49:29;;;;;;;8.90;2.47;;;5.00;32.00;;;;;;10438412;28;20202;-86
2023/01/03 19:54:50;;;;;;;5.97;3.70;;;5.00;21.50;;;;;;10437673;28;20201;-86
2023/01/03 20:00:19;;;;;;;10.00;2.73;;;5.00;41.40;;;;;;10439005;28;20358;-77
2023/01/03 20:05:40;;;;;;;7.87;2.67;;;5.00;13.80;;;;;;10440138;28;20244;-78
2023/01/03 20:11:01;;;;;;;8.23;3.40;;;5.00;6.30;;;;;;10479491;28;20255;-85
2023/01/03 20:16:22;;;;;;;8.83;2.97;;;4.90;1.00;;;;;;10479230;28;20487;-77
2023/01/03 20:21:48;;;;;;;9.17;3.13;;;4.80;9.20;;;;;;10477389;28;20212;-75
2023/01/03 20:27:13;;;;;;;7.47;2.10;;;4.70;15.50;;;;;;10477371;28;20230;-75
2023/01/03 20:32:34;;;;;;;6.30;3.20;;;4.50;26.70;;;;;;10478325;28;20200;-83
2023/01/03 20:37:57;;;;;;;6.83;3.00;;;4.50;18.80;;;;;;10477979;28;20200;-84
2023/01/03 20:43:19;;;;;;;14.23;3.30;;;4.50;22.10;;;;;;10503583;28;20227;-84
2023/01/03 20:48:40;;;;;;;11.17;3.93;;;4.50;41.40;;;;;;10520557;28;20270;-83
2023/01/03 20:54:01;;;;;;;9.40;3.10;;;4.30;25.80;;;;;;10520219;28;20191;-86
2023/01/03 20:59:23;;;;;;;5.83;2.97;;;4.30;28.80;;;;;;10520413;28;20204;-85
2023/01/03 21:04:44;;;;;;;9.20;3.27;;;4.20;45.10;;;;;;10501987;28;20227;-80
2023/01/03 21:10:09;;;;;;;8.90;3.23;;;4.20;84.10;;;;;;10519976;28;20210;-84
2023/01/03 21:15:31;;;;;;;12.93;3.10;;;4.30;75.30;;;;;;10519925;28;20219;-80
2023/01/03 21:20:52;;;;;;;13.43;3.60;;;4.30;60.20;;;;;;10504716;28;20210;-80
2023/01/03 21:26:14;;;;;;;6.03;2.57;;;4.30;25.80;;;;;;10506472;28;20223;-82
2023/01/03 21:31:35;;;;;;;9.60;2.87;;;4.20;28.80;;;;;;10495426;28;20198;-83
2023/01/03 21:36:56;;;;;;;13.37;3.73;;;4.20;54.30;;;;;;10507734;28;20219;-84
2023/01/03 21:47:58;;;;;;;8.37;3.43;;;4.10;47.80;;;;;;10509174;28;20249;-83
2023/01/03 21:53:21;;;;;;;9.13;3.03;;;3.90;50.30;;;;;;10526675;28;20202;-83
2023/01/03 21:58:43;;;;;;;7.77;3.53;;;;;;;;;;10509993;28;20199;-85
2023/01/03 22:04:16;;;;;;;8.90;3.60;;;;;;;;;;10526053;28;20226;-84
2023/01/03 22:15:18;;;;;;;7.87;3.00;;;;;;;;;;10525931;28;20196;-85
2023/01/03 22:20:40;;;;;;;8.73;3.70;;;;;;;;;;10493861;28;20203;-85
2023/01/03 22:26:05;;;;;;;8.37;2.90;;;;;;;;;;10511048;28;20269;-85
2023/01/03 22:31:27;;;;;;;9.83;2.80;;;;;;;;;;10507384;28;20267;-84
2023/01/03 22:36:48;;;;;;;10.57;3.83;;;;;;;;;;10492390;28;20520;-85
2023/01/03 22:42:10;;;;;;;15.70;3.73;;;;;;;;;;10524546;28;20223;-85
2023/01/03 22:47:35;;;;;;;6.13;2.63;;;;;;;;;;10509313;28;20579;-83
2023/01/03 22:52:56;;;;;;;6.33;2.67;;;;;;;;;;10492430;28;20205;-85
2023/01/03 22:58:18;;;;;;;8.60;2.53;;;;;;;;;;10509009;28;20191;-80
2023/01/03 23:03:39;;;;;;;8.27;2.67;;;;;;;;;;10523293;28;20258;-83
2023/01/03 23:09:01;;;;;;;5.37;2.90;;;;;;;;;;10506294;28;20513;-81
2023/01/03 23:14:23;;;;;;;9.43;3.17;;;;;;;;;;10508496;28;20193;-81
2023/01/03 23:19:45;;;;;;;5.57;2.70;;;;;;;;;;10523463;28;20200;-77
2023/01/03 23:25:06;;;;;;;6.27;2.63;;;;;;;;;;10522957;28;20529;-84
2023/01/03 23:30:28;;;;;;;12.10;3.07;;;;;;;;;;10507800;28;20430;-84
2023/01/03 23:35:49;;;;;;;8.73;3.07;;;;;;;;;;10508394;28;20199;-85
2023/01/03 23:41:11;;;;;;;9.30;2.33;;;;;;;;;;10522522;28;20237;-84
2023/01/03 23:46:32;;;;;;;6.57;2.57;;;;;;;;;;10506500;28;20235;-83
2023/01/03 23:51:54;;;;;;;4.63;2.30;;;;;;;;;;10504331;28;20275;-80
2023/01/03 23:57:16;;;;;;;5.80;2.67;;;;;;;;;;10521728;28;20254;-81
